Time;durP1;ratioP1;P1;durP2;ratioP2;P2;SDS_P1;SDS_P2;PMS_P1;PMS_P2;Temp;Humidity;BMP_temperature;BMP_pressure;BME280_temperature;BME280_humidity;BME280_pressure;Samples;Min_cycle;Max_cycle;Signal;HPM_P1;HPM_P2
2021/08/27 00:00:41;;;;;;;5.07;2.00;;;;;;;;;;7368038;19;20031;-60
2021/08/27 00:03:07;;;;;;;3.70;2.17;;;;;;;;;;7370697;19;20025;-60
2021/08/27 00:05:33;;;;;;;5.63;1.95;;;;;;;;;;7374346;19;20823;-60
2021/08/27 00:07:59;;;;;;;3.67;1.80;;;;;;;;;;7375757;19;20031;-60
2021/08/27 00:10:25;;;;;;;5.97;2.00;;;;;;;;;;7374242;19;20074;-60
2021/08/27 00:12:51;;;;;;;5.10;1.90;;;;;;;;;;7374590;19;20624;-60
2021/08/27 00:15:17;;;;;;;2.65;1.85;;;;;;;;;;7373334;19;20389;-60
2021/08/27 00:17:43;;;;;;;2.95;1.98;;;;;;;;;;7374876;19;20792;-60
2021/08/27 00:20:10;;;;;;;5.28;3.03;;;;;;;;;;7373218;19;20089;-60
2021/08/27 00:22:36;;;;;;;2.90;2.10;;;;;;;;;;7375706;19;20101;-59
2021/08/27 00:25:02;;;;;;;11.73;2.60;;;;;;;;;;7373267;19;20023;-59
2021/08/27 00:27:28;;;;;;;3.58;2.22;;;;;;;;;;7374194;19;20045;-59
2021/08/27 00:29:54;;;;;;;4.20;2.25;;;;;;;;;;7375752;19;20805;-59
2021/08/27 00:32:20;;;;;;;4.15;2.10;;;;;;;;;;7371520;19;20050;-60
2021/08/27 00:34:46;;;;;;;2.70;2.08;;;;;;;;;;7371144;19;20500;-59
2021/08/27 00:37:12;;;;;;;3.30;2.17;;;;;;;;;;7374798;19;20015;-66
2021/08/27 00:39:38;;;;;;;5.35;1.83;;;;;;;;;;7370593;19;20014;-66
2021/08/27 00:42:04;;;;;;;6.88;2.30;;;;;;;;;;7375841;19;20014;-66
2021/08/27 00:44:30;;;;;;;2.83;2.13;;;;;;;;;;7374296;19;20010;-66
2021/08/27 00:46:56;;;;;;;3.13;2.03;;;;;;;;;;7374277;19;20078;-66
2021/08/27 00:49:22;;;;;;;5.13;2.20;;;;;;;;;;7375642;19;20086;-66
2021/08/27 00:51:48;;;;;;;7.30;2.13;;;;;;;;;;7374720;19;20083;-66
2021/08/27 00:54:14;;;;;;;3.83;1.90;;;;;;;;;;7372703;19;20035;-66
2021/08/27 00:56:40;;;;;;;5.50;2.42;;;;;;;;;;7375725;19;20024;-66
2021/08/27 00:59:07;;;;;;;11.05;2.67;;;;;;;;;;7373422;19;20598;-66
2021/08/27 01:01:33;;;;;;;3.70;2.28;;;;;;;;;;7374594;19;20019;-66
2021/08/27 01:03:59;;;;;;;4.95;2.42;;;;;;;;;;7373763;19;20019;-66
2021/08/27 01:06:25;;;;;;;4.88;2.03;;;;;;;;;;7375742;19;20015;-66
2021/08/27 01:08:52;;;;;;;3.40;2.25;;;;;;;;;;7373335;19;20047;-66
2021/08/27 01:11:18;;;;;;;11.30;2.40;;;;;;;;;;7375013;19;20019;-66
2021/08/27 01:13:44;;;;;;;6.82;2.38;;;;;;;;;;7372599;19;20479;-66
2021/08/27 01:16:10;;;;;;;4.72;1.95;;;;;;;;;;7372799;19;20520;-66
2021/08/27 01:18:36;;;;;;;6.45;2.10;;;;;;;;;;7374061;19;20025;-66
2021/08/27 01:21:02;;;;;;;3.85;1.98;;;;;;;;;;7374420;19;20010;-66
2021/08/27 01:23:30;;;;;;;4.72;1.85;;;;;;;;;;7373885;19;20051;-66
2021/08/27 01:25:56;;;;;;;15.38;3.08;;;;;;;;;;7374341;19;20069;-67
2021/08/27 01:28:22;;;;;;;5.15;1.98;;;;;;;;;;7371556;19;20592;-67
2021/08/27 01:30:48;;;;;;;7.05;2.10;;;;;;;;;;7373389;19;20026;-67
2021/08/27 01:33:14;;;;;;;4.35;2.40;;;;;;;;;;7370355;19;20101;-67
2021/08/27 01:35:40;;;;;;;9.02;2.40;;;;;;;;;;7372574;19;20006;-67
2021/08/27 01:38:06;;;;;;;5.50;2.30;;;;;;;;;;7375788;19;20039;-67
2021/08/27 01:40:32;;;;;;;4.72;2.22;;;;;;;;;;7374134;19;20811;-67
2021/08/27 01:42:58;;;;;;;4.63;2.50;;;;;;;;;;7374383;19;20475;-67
2021/08/27 01:45:24;;;;;;;3.97;2.08;;;;;;;;;;7371591;19;20090;-67
2021/08/27 01:47:50;;;;;;;5.13;2.13;;;;;;;;;;7373378;19;20471;-67
2021/08/27 01:50:16;;;;;;;7.35;2.33;;;;;;;;;;7374142;19;20011;-67
2021/08/27 01:52:42;;;;;;;8.55;2.65;;;;;;;;;;7371996;19;20017;-67
2021/08/27 01:55:08;;;;;;;4.30;2.45;;;;;;;;;;7372718;19;20007;-67
2021/08/27 01:57:34;;;;;;;7.65;2.75;;;;;;;;;;7373117;19;20097;-67
2021/08/27 02:00:00;;;;;;;6.32;2.53;;;;;;;;;;7373959;19;20039;-67
2021/08/27 02:02:26;;;;;;;6.75;2.92;;;;;;;;;;7372609;19;20010;-67
2021/08/27 02:04:52;;;;;;;7.45;2.83;;;;;;;;;;7371869;19;20018;-67
2021/08/27 02:07:18;;;;;;;9.35;2.83;;;;;;;;;;7372331;19;20045;-67
2021/08/27 02:09:44;;;;;;;3.22;2.40;;;;;;;;;;7373246;19;20360;-67
2021/08/27 02:12:10;;;;;;;3.20;2.33;;;;;;;;;;7371106;19;21001;-67
2021/08/27 02:14:36;;;;;;;5.97;2.58;;;;;;;;;;7371900;19;20050;-67
2021/08/27 02:17:02;;;;;;;4.40;2.60;;;;;;;;;;7372627;19;20530;-67
2021/08/27 02:19:28;;;;;;;4.47;3.15;;;;;;;;;;7372428;19;20070;-67
2021/08/27 02:21:54;;;;;;;5.68;2.90;;;;;;;;;;7372506;19;20043;-67
2021/08/27 02:24:20;;;;;;;7.10;2.88;;;;;;;;;;7371085;19;20749;-67
2021/08/27 02:26:46;;;;;;;9.40;3.10;;;;;;;;;;7372378;19;20044;-67
2021/08/27 02:29:14;;;;;;;7.05;3.20;;;;;;;;;;7372605;19;20044;-67
2021/08/27 02:31:40;;;;;;;6.95;2.70;;;;;;;;;;7372095;19;20031;-67
2021/08/27 02:34:06;;;;;;;4.07;2.20;;;;;;;;;;7372167;19;20014;-67
2021/08/27 02:36:32;;;;;;;6.43;2.40;;;;;;;;;;7373742;19;20039;-67
2021/08/27 02:38:58;;;;;;;8.00;2.70;;;;;;;;;;7371238;19;21003;-67
2021/08/27 02:41:24;;;;;;;4.15;2.20;;;;;;;;;;7372029;19;20015;-67
2021/08/27 02:43:50;;;;;;;7.30;2.30;;;;;;;;;;7371870;19;20032;-67
2021/08/27 02:46:16;;;;;;;5.32;2.00;;;;;;;;;;7372172;19;20032;-67
2021/08/27 02:48:42;;;;;;;4.47;2.25;;;;;;;;;;7372745;19;20050;-67
2021/08/27 02:51:08;;;;;;;3.97;2.15;;;;;;;;;;7371009;19;20541;-67
2021/08/27 02:53:35;;;;;;;5.22;2.20;;;;;;;;;;7371108;19;20016;-67
2021/08/27 02:56:01;;;;;;;4.97;2.47;;;;;;;;;;7371700;19;20089;-67
2021/08/27 02:58:27;;;;;;;7.55;2.70;;;;;;;;;;7371522;19;20013;-66
2021/08/27 03:00:55;;;;;;;4.18;2.53;;;;;;;;;;7370662;19;20687;-67
2021/08/27 03:03:21;;;;;;;3.88;2.55;;;;;;;;;;7372200;19;20600;-67
2021/08/27 03:05:48;;;;;;;7.13;3.20;;;;;;;;;;7369487;19;20022;-67
2021/08/27 03:08:13;;;;;;;5.30;3.20;;;;;;;;;;7370906;19;20078;-67
2021/08/27 03:10:39;;;;;;;6.32;2.53;;;;;;;;;;7371085;19;20575;-67
2021/08/27 03:13:08;;;;;;;5.28;2.88;;;;;;;;;;7369684;19;20052;-67
2021/08/27 03:15:34;;;;;;;5.35;2.55;;;;;;;;;;7369742;19;20018;-67
2021/08/27 03:18:00;;;;;;;6.72;3.30;;;;;;;;;;7370037;19;20035;-67
2021/08/27 03:20:26;;;;;;;4.63;1.88;;;;;;;;;;7371588;19;20014;-67
2021/08/27 03:22:52;;;;;;;3.05;2.00;;;;;;;;;;7369902;19;20424;-67
2021/08/27 03:25:20;;;;;;;2.25;1.77;;;;;;;;;;7368941;19;20119;-67
2021/08/27 03:27:46;;;;;;;5.32;2.03;;;;;;;;;;7369982;19;20025;-67
2021/08/27 03:30:11;;;;;;;2.15;1.60;;;;;;;;;;7371496;19;20022;-67
2021/08/27 03:32:39;;;;;;;3.45;2.00;;;;;;;;;;7368795;19;20109;-67
2021/08/27 03:35:05;;;;;;;2.85;2.17;;;;;;;;;;7370537;19;20014;-67
2021/08/27 03:37:31;;;;;;;4.80;2.00;;;;;;;;;;7369155;19;20019;-67
2021/08/27 03:39:57;;;;;;;3.45;2.60;;;;;;;;;;7380096;19;20484;-67
2021/08/27 03:42:23;;;;;;;8.38;2.83;;;;;;;;;;7378676;19;20026;-67
2021/08/27 03:44:49;;;;;;;6.00;1.92;;;;;;;;;;7375393;19;20064;-67
2021/08/27 03:47:15;;;;;;;3.00;2.15;;;;;;;;;;7377306;19;20629;-67
2021/08/27 03:49:41;;;;;;;4.68;2.65;;;;;;;;;;7377921;19;20018;-67
2021/08/27 03:52:07;;;;;;;4.70;2.63;;;;;;;;;;7376075;19;20022;-66
2021/08/27 03:54:33;;;;;;;7.18;2.00;;;;;;;;;;7375853;19;20085;-66
2021/08/27 03:56:59;;;;;;;3.70;1.80;;;;;;;;;;7377324;19;20035;-66
2021/08/27 03:59:25;;;;;;;3.08;1.95;;;;;;;;;;7376524;19;20594;-66
2021/08/27 04:01:51;;;;;;;4.28;1.95;;;;;;;;;;7378018;19;20023;-66
2021/08/27 04:04:19;;;;;;;2.28;1.92;;;;;;;;;;7376415;19;20370;-66
2021/08/27 04:06:45;;;;;;;3.63;2.03;;;;;;;;;;7377582;19;20026;-66
2021/08/27 04:09:11;;;;;;;3.25;2.00;;;;;;;;;;7377581;19;20022;-66
2021/08/27 04:11:37;;;;;;;2.60;1.50;;;;;;;;;;7377875;19;20102;-66
2021/08/27 04:14:03;;;;;;;5.15;2.38;;;;;;;;;;7376846;19;20019;-67
2021/08/27 04:16:29;;;;;;;4.00;1.60;;;;;;;;;;7377045;19;20054;-66
2021/08/27 04:18:54;;;;;;;3.58;1.70;;;;;;;;;;7377256;19;20018;-66
2021/08/27 04:21:20;;;;;;;2.88;1.90;;;;;;;;;;7376137;19;20022;-66
2021/08/27 04:23:46;;;;;;;1.63;1.40;;;;;;;;;;7376921;19;20029;-66
2021/08/27 04:26:12;;;;;;;5.90;2.15;;;;;;;;;;7377105;19;20492;-66
2021/08/27 04:28:38;;;;;;;2.72;2.00;;;;;;;;;;7375796;19;20018;-66
2021/08/27 04:31:04;;;;;;;2.70;1.92;;;;;;;;;;7374289;19;20026;-66
2021/08/27 04:33:30;;;;;;;3.30;2.10;;;;;;;;;;7376382;19;20048;-66
2021/08/27 04:35:56;;;;;;;3.35;2.38;;;;;;;;;;7375703;19;20018;-66
2021/08/27 04:38:22;;;;;;;2.70;1.70;;;;;;;;;;7376947;19;20018;-66
2021/08/27 04:40:48;;;;;;;2.60;1.77;;;;;;;;;;7377812;19;20018;-66
2021/08/27 04:43:14;;;;;;;3.45;2.35;;;;;;;;;;7375118;19;20482;-66
2021/08/27 04:45:40;;;;;;;3.67;2.10;;;;;;;;;;7374970;19;20110;-66
2021/08/27 04:48:06;;;;;;;2.40;1.88;;;;;;;;;;7373354;19;20014;-66
2021/08/27 04:50:32;;;;;;;2.53;2.00;;;;;;;;;;7376987;19;20079;-66
2021/08/27 04:52:58;;;;;;;3.17;1.85;;;;;;;;;;7373997;19;20011;-66
2021/08/27 04:55:24;;;;;;;2.35;1.70;;;;;;;;;;7373951;19;20436;-67
2021/08/27 04:57:50;;;;;;;2.80;1.50;;;;;;;;;;7375039;19;20018;-67
2021/08/27 05:00:16;;;;;;;2.45;1.80;;;;;;;;;;7376801;19;20126;-67
2021/08/27 05:02:42;;;;;;;3.15;1.95;;;;;;;;;;7375498;19;20595;-66
2021/08/27 05:05:08;;;;;;;3.47;1.77;;;;;;;;;;7374467;19;20010;-67
2021/08/27 05:07:34;;;;;;;3.65;2.17;;;;;;;;;;7374286;19;20109;-67
2021/08/27 05:10:00;;;;;;;3.28;2.22;;;;;;;;;;7376525;19;20074;-67
2021/08/27 05:12:27;;;;;;;3.05;1.85;;;;;;;;;;7375315;19;20019;-67
2021/08/27 05:14:53;;;;;;;3.05;2.33;;;;;;;;;;7370708;19;20085;-67
2021/08/27 05:17:19;;;;;;;4.20;2.38;;;;;;;;;;7375974;19;20053;-67
2021/08/27 05:19:45;;;;;;;3.90;2.53;;;;;;;;;;7376662;19;20018;-67
2021/08/27 05:22:11;;;;;;;3.22;2.08;;;;;;;;;;7376259;19;20025;-67
2021/08/27 05:24:37;;;;;;;2.60;1.58;;;;;;;;;;7373633;19;20070;-67
2021/08/27 05:27:03;;;;;;;4.43;1.85;;;;;;;;;;7376193;19;20020;-67
2021/08/27 05:29:29;;;;;;;7.38;2.00;;;;;;;;;;7374674;19;20090;-67
2021/08/27 05:31:55;;;;;;;1.83;1.50;;;;;;;;;;7374569;19;20607;-67
2021/08/27 05:34:21;;;;;;;1.60;1.45;;;;;;;;;;7371429;19;20018;-67
2021/08/27 05:36:47;;;;;;;2.17;1.10;;;;;;;;;;7373628;19;20044;-67
2021/08/27 05:39:13;;;;;;;2.28;1.83;;;;;;;;;;7375254;19;20014;-67
2021/08/27 05:41:39;;;;;;;5.25;1.40;;;;;;;;;;7375949;19;20018;-67
2021/08/27 05:44:05;;;;;;;5.43;1.30;;;;;;;;;;7373660;19;20018;-67
2021/08/27 05:46:31;;;;;;;2.35;1.58;;;;;;;;;;7374265;19;20018;-67
2021/08/27 05:48:57;;;;;;;2.60;1.35;;;;;;;;;;7374030;19;20056;-67
2021/08/27 05:51:23;;;;;;;1.80;1.40;;;;;;;;;;7372204;19;20018;-67
2021/08/27 05:53:49;;;;;;;1.98;1.40;;;;;;;;;;7372613;19;20018;-67
2021/08/27 05:56:15;;;;;;;5.03;1.40;;;;;;;;;;7372452;19;20026;-67
2021/08/27 05:58:42;;;;;;;2.83;1.55;;;;;;;;;;7371881;19;20118;-67
2021/08/27 06:01:08;;;;;;;1.42;1.20;;;;;;;;;;7370994;19;20046;-67
2021/08/27 06:03:33;;;;;;;1.45;1.00;;;;;;;;;;7373068;19;20566;-67
2021/08/27 06:05:59;;;;;;;3.25;1.13;;;;;;;;;;7372957;19;20889;-67
2021/08/27 06:08:25;;;;;;;2.90;1.40;;;;;;;;;;7371233;19;20014;-67
2021/08/27 06:10:51;;;;;;;1.75;1.23;;;;;;;;;;7373559;19;20006;-67
2021/08/27 06:13:17;;;;;;;1.90;1.20;;;;;;;;;;7369930;19;20109;-67
2021/08/27 06:15:45;;;;;;;1.33;1.23;;;;;;;;;;7370824;19;20090;-66
2021/08/27 06:18:11;;;;;;;6.32;1.23;;;;;;;;;;7369590;19;20369;-66
2021/08/27 06:20:37;;;;;;;1.05;0.95;;;;;;;;;;7372519;19;20011;-66
2021/08/27 06:23:03;;;;;;;1.10;0.90;;;;;;;;;;7372047;19;20029;-66
2021/08/27 06:25:29;;;;;;;1.92;1.20;;;;;;;;;;7371122;19;20018;-66
2021/08/27 06:27:55;;;;;;;1.10;1.00;;;;;;;;;;7370385;19;20025;-66
2021/08/27 06:30:20;;;;;;;1.80;0.95;;;;;;;;;;7371364;19;20462;-67
2021/08/27 06:32:47;;;;;;;0.90;0.90;;;;;;;;;;7369640;19;20025;-67
2021/08/27 06:35:13;;;;;;;0.88;0.70;;;;;;;;;;7369594;19;20019;-67
2021/08/27 06:40:23;;;;;;;1.50;0.68;;;;;;;;;;7371242;19;20365;-67
2021/08/27 06:42:49;;;;;;;3.17;1.00;;;;;;;;;;7370830;19;20048;-67
2021/08/27 06:45:15;;;;;;;1.30;0.93;;;;;;;;;;7368991;19;20026;-67
2021/08/27 06:47:41;;;;;;;0.68;0.60;;;;;;;;;;7371504;19;20019;-66
2021/08/27 06:50:07;;;;;;;1.20;0.85;;;;;;;;;;7369965;19;20373;-67
2021/08/27 06:52:33;;;;;;;0.93;0.50;;;;;;;;;;7371236;19;20033;-67
2021/08/27 06:54:59;;;;;;;0.47;0.40;;;;;;;;;;7366479;19;20022;-66
2021/08/27 06:57:25;;;;;;;1.13;0.50;;;;;;;;;;7369444;19;20065;-66
2021/08/27 06:59:51;;;;;;;1.90;0.50;;;;;;;;;;7368376;19;20025;-66
2021/08/27 07:02:17;;;;;;;0.70;0.50;;;;;;;;;;7372390;19;20075;-66
2021/08/27 07:04:43;;;;;;;0.40;0.32;;;;;;;;;;7369040;19;20819;-66
2021/08/27 07:07:09;;;;;;;0.30;0.30;;;;;;;;;;7369811;19;20839;-67
2021/08/27 07:09:35;;;;;;;0.30;0.30;;;;;;;;;;7368717;19;20012;-67
2021/08/27 07:12:01;;;;;;;0.40;0.40;;;;;;;;;;7370770;19;20021;-67
2021/08/27 07:14:27;;;;;;;0.43;0.38;;;;;;;;;;7377473;19;20105;-66
2021/08/27 07:16:53;;;;;;;0.82;0.30;;;;;;;;;;7377610;19;20018;-66
2021/08/27 07:19:19;;;;;;;0.73;0.70;;;;;;;;;;7378740;19;20082;-66
2021/08/27 07:21:45;;;;;;;1.13;0.77;;;;;;;;;;7376783;19;20014;-66
2021/08/27 07:24:11;;;;;;;0.95;0.40;;;;;;;;;;7375633;19;20106;-67
2021/08/27 07:26:37;;;;;;;0.45;0.40;;;;;;;;;;7376858;19;20015;-68
2021/08/27 07:29:03;;;;;;;2.85;0.30;;;;;;;;;;7377532;19;20026;-67
2021/08/27 07:31:29;;;;;;;1.85;1.17;;;;;;;;;;7374905;19;20684;-67
2021/08/27 07:33:55;;;;;;;2.15;1.20;;;;;;;;;;7376810;19;20018;-67
2021/08/27 07:36:21;;;;;;;10.85;5.63;;;;;;;;;;7378626;19;20022;-67
2021/08/27 07:38:47;;;;;;;1.35;0.73;;;;;;;;;;7375516;19;20018;-67
2021/08/27 07:41:13;;;;;;;1.48;0.77;;;;;;;;;;7378922;19;20007;-68
2021/08/27 07:43:39;;;;;;;0.68;0.47;;;;;;;;;;7377877;19;20539;-67
2021/08/27 07:46:05;;;;;;;0.82;0.40;;;;;;;;;;7378317;19;20804;-67
2021/08/27 07:48:31;;;;;;;3.08;0.50;;;;;;;;;;7374729;19;20007;-68
2021/08/27 07:50:57;;;;;;;0.65;0.60;;;;;;;;;;7379384;19;20011;-67
2021/08/27 07:53:23;;;;;;;0.82;0.40;;;;;;;;;;7374248;19;20750;-67
2021/08/27 07:55:49;;;;;;;0.68;0.40;;;;;;;;;;7373781;19;20015;-67
2021/08/27 07:58:15;;;;;;;0.32;0.30;;;;;;;;;;7375608;19;20011;-68
2021/08/27 08:00:41;;;;;;;0.40;0.40;;;;;;;;;;7378824;19;20197;-67
2021/08/27 08:03:07;;;;;;;0.30;0.30;;;;;;;;;;7379262;19;20022;-67
2021/08/27 08:05:33;;;;;;;0.20;0.20;;;;;;;;;;7376687;19;20757;-67
2021/08/27 08:07:59;;;;;;;0.52;0.50;;;;;;;;;;7378268;19;20036;-67
2021/08/27 08:10:25;;;;;;;0.38;0.32;;;;;;;;;;7376571;19;20078;-67
2021/08/27 08:12:51;;;;;;;1.08;0.70;;;;;;;;;;7377176;19;20011;-67
2021/08/27 08:15:21;;;;;;;2.58;0.50;;;;;;;;;;7375632;19;20049;-68
2021/08/27 08:17:47;;;;;;;1.42;0.60;;;;;;;;;;7376703;19;20026;-67
2021/08/27 08:20:12;;;;;;;0.75;0.60;;;;;;;;;;7375732;19;20022;-67
2021/08/27 08:22:38;;;;;;;0.77;0.50;;;;;;;;;;7378338;19;20035;-68
2021/08/27 08:25:05;;;;;;;2.10;0.63;;;;;;;;;;7371815;19;20010;-70
2021/08/27 08:27:34;;;;;;;0.68;0.57;;;;;;;;;;7374449;19;20014;-69
2021/08/27 08:30:00;;;;;;;1.25;0.50;;;;;;;;;;7378474;19;20018;-69
2021/08/27 08:32:26;;;;;;;0.50;0.50;;;;;;;;;;7375417;19;20017;-68
2021/08/27 08:34:52;;;;;;;2.38;1.05;;;;;;;;;;7375801;19;20041;-67
2021/08/27 08:37:18;;;;;;;1.45;0.70;;;;;;;;;;7375581;19;20022;-67
2021/08/27 08:39:44;;;;;;;2.42;1.25;;;;;;;;;;7374920;19;20027;-67
2021/08/27 08:42:10;;;;;;;8.98;3.97;;;;;;;;;;7376243;19;20014;-67
2021/08/27 08:44:35;;;;;;;4.03;2.00;;;;;;;;;;7375643;19;20018;-67
2021/08/27 08:47:02;;;;;;;0.68;0.60;;;;;;;;;;7376093;19;20083;-67
2021/08/27 08:49:28;;;;;;;3.75;0.60;;;;;;;;;;7375838;19;20014;-67
2021/08/27 08:51:54;;;;;;;3.88;0.50;;;;;;;;;;7374512;19;20097;-67
2021/08/27 08:54:20;;;;;;;1.00;0.50;;;;;;;;;;7374571;19;20027;-67
2021/08/27 08:56:46;;;;;;;0.85;0.52;;;;;;;;;;7375031;19;20023;-67
2021/08/27 08:59:12;;;;;;;0.93;0.50;;;;;;;;;;7375214;19;20018;-67
2021/08/27 09:01:38;;;;;;;2.22;0.80;;;;;;;;;;7377230;19;20019;-67
2021/08/27 09:04:04;;;;;;;0.85;0.50;;;;;;;;;;7376666;19;20085;-65
2021/08/27 09:06:30;;;;;;;4.93;2.25;;;;;;;;;;7378881;19;20513;-65
2021/08/27 09:09:00;;;;;;;1.15;0.70;;;;;;;;;;7378378;19;20003;-65
2021/08/27 09:11:26;;;;;;;2.65;1.23;;;;;;;;;;7377117;19;20295;-66
2021/08/27 09:13:52;;;;;;;2.28;0.70;;;;;;;;;;7378949;19;21217;-66
2021/08/27 09:16:18;;;;;;;0.50;0.50;;;;;;;;;;7377646;19;20134;-66
2021/08/27 09:18:44;;;;;;;0.30;0.30;;;;;;;;;;7371609;19;20519;-66
2021/08/27 09:21:10;;;;;;;0.40;0.40;;;;;;;;;;7375432;19;20042;-66
2021/08/27 09:23:36;;;;;;;2.10;0.50;;;;;;;;;;7376154;19;20049;-66
2021/08/27 09:26:02;;;;;;;1.48;0.50;;;;;;;;;;7373935;19;20073;-66
2021/08/27 09:28:28;;;;;;;0.80;0.50;;;;;;;;;;7373138;19;20032;-67
2021/08/27 09:30:53;;;;;;;0.70;0.38;;;;;;;;;;7373015;19;20022;-74
2021/08/27 09:33:23;;;;;;;1.75;0.50;;;;;;;;;;7372036;19;20059;-73
2021/08/27 09:35:49;;;;;;;1.40;0.70;;;;;;;;;;7369876;19;20501;-68
2021/08/27 09:38:16;;;;;;;4.03;0.57;;;;;;;;;;7372932;19;20018;-73
2021/08/27 09:40:48;;;;;;;0.82;0.43;;;;;;;;;;7374790;19;20065;-73
2021/08/27 09:43:14;;;;;;;2.78;0.50;;;;;;;;;;7373400;19;20479;-71
2021/08/27 09:45:44;;;;;;;1.63;0.40;;;;;;;;;;7373197;19;20021;-72
2021/08/27 09:48:11;;;;;;;1.98;0.50;;;;;;;;;;7372237;19;20039;-72
2021/08/27 09:50:37;;;;;;;0.40;0.40;;;;;;;;;;7375412;19;20624;-72
2021/08/27 09:53:03;;;;;;;2.15;0.55;;;;;;;;;;7370907;19;20018;-71
2021/08/27 09:55:29;;;;;;;0.93;0.70;;;;;;;;;;7370588;19;20014;-71
2021/08/27 09:57:55;;;;;;;1.23;0.70;;;;;;;;;;7373460;19;20025;-71
2021/08/27 10:00:21;;;;;;;2.97;0.95;;;;;;;;;;7377010;19;20018;-71
2021/08/27 10:02:47;;;;;;;1.50;0.70;;;;;;;;;;7373335;19;20018;-71
2021/08/27 10:05:13;;;;;;;0.77;0.50;;;;;;;;;;7373930;19;20018;-72
2021/08/27 10:07:42;;;;;;;0.70;0.45;;;;;;;;;;7373957;19;20769;-72
2021/08/27 10:10:08;;;;;;;3.40;2.20;;;;;;;;;;7373876;19;20583;-72
2021/08/27 10:12:34;;;;;;;1.00;0.50;;;;;;;;;;7373911;19;20125;-72
2021/08/27 10:15:00;;;;;;;3.05;0.70;;;;;;;;;;7371930;19;20027;-72
2021/08/27 10:17:27;;;;;;;2.03;0.95;;;;;;;;;;7371681;19;20932;-73
2021/08/27 10:19:53;;;;;;;5.18;2.00;;;;;;;;;;7374020;19;20023;-74
2021/08/27 10:22:19;;;;;;;0.63;0.60;;;;;;;;;;7374448;19;20050;-73
2021/08/27 10:24:49;;;;;;;1.60;0.40;;;;;;;;;;7370028;19;20082;-74
2021/08/27 10:27:15;;;;;;;0.82;0.80;;;;;;;;;;7372569;19;20014;-73
2021/08/27 10:29:41;;;;;;;1.95;0.55;;;;;;;;;;7374757;19;20026;-71
2021/08/27 10:32:07;;;;;;;0.93;0.50;;;;;;;;;;7369286;19;20036;-74
2021/08/27 10:34:33;;;;;;;1.17;0.63;;;;;;;;;;7373178;19;20063;-74
2021/08/27 10:36:59;;;;;;;4.00;0.82;;;;;;;;;;7371185;19;20014;-74
2021/08/27 10:39:25;;;;;;;0.57;0.40;;;;;;;;;;7371752;19;20022;-74
2021/08/27 10:41:51;;;;;;;0.40;0.40;;;;;;;;;;7372114;19;20015;-74
2021/08/27 10:44:17;;;;;;;3.47;1.00;;;;;;;;;;7372239;19;20897;-74
2021/08/27 10:46:43;;;;;;;2.25;0.77;;;;;;;;;;7370697;19;20028;-74
2021/08/27 10:49:09;;;;;;;0.60;0.60;;;;;;;;;;7370600;19;20014;-74
2021/08/27 10:51:35;;;;;;;1.45;0.57;;;;;;;;;;7373294;19;20019;-74
2021/08/27 10:54:01;;;;;;;0.50;0.50;;;;;;;;;;7370697;19;20015;-75
2021/08/27 10:56:27;;;;;;;1.05;0.60;;;;;;;;;;7373189;19;20050;-74
2021/08/27 10:58:53;;;;;;;4.57;2.15;;;;;;;;;;7370049;19;20521;-74
2021/08/27 11:01:19;;;;;;;1.65;0.98;;;;;;;;;;7369617;19;20054;-74
2021/08/27 11:03:45;;;;;;;8.15;2.90;;;;;;;;;;7369620;19;20049;-75
2021/08/27 11:06:11;;;;;;;1.88;1.00;;;;;;;;;;7371491;19;20010;-74
2021/08/27 11:08:38;;;;;;;4.50;2.22;;;;;;;;;;7369265;19;20014;-74
2021/08/27 11:11:04;;;;;;;0.93;0.68;;;;;;;;;;7372796;19;20862;-74
2021/08/27 11:13:30;;;;;;;1.48;0.60;;;;;;;;;;7369603;19;20010;-74
2021/08/27 11:15:56;;;;;;;1.05;0.63;;;;;;;;;;7368197;19;20015;-74
2021/08/27 11:18:24;;;;;;;4.90;0.43;;;;;;;;;;7371475;19;20071;-74
2021/08/27 11:20:50;;;;;;;1.92;0.60;;;;;;;;;;7369042;19;20022;-74
2021/08/27 11:23:16;;;;;;;0.68;0.40;;;;;;;;;;7370642;19;20030;-74
2021/08/27 11:25:42;;;;;;;1.30;0.63;;;;;;;;;;7366663;19;20019;-74
2021/08/27 11:28:08;;;;;;;0.35;0.32;;;;;;;;;;7369679;19;20035;-74
2021/08/27 11:30:34;;;;;;;5.40;2.15;;;;;;;;;;7370075;19;20022;-74
2021/08/27 11:33:01;;;;;;;17.52;4.47;;;;;;;;;;7370516;19;20023;-74
2021/08/27 11:35:27;;;;;;;11.82;4.05;;;;;;;;;;7369184;19;20133;-74
2021/08/27 11:37:53;;;;;;;2.78;1.42;;;;;;;;;;7370695;19;20047;-73
2021/08/27 11:40:19;;;;;;;6.30;2.10;;;;;;;;;;7371681;19;20078;-74
2021/08/27 11:42:45;;;;;;;3.83;1.95;;;;;;;;;;7370539;19;20025;-74
2021/08/27 11:45:11;;;;;;;3.65;1.70;;;;;;;;;;7369210;19;20019;-74
2021/08/27 11:47:37;;;;;;;2.60;0.30;;;;;;;;;;7369543;19;20019;-74
2021/08/27 11:50:04;;;;;;;0.93;0.82;;;;;;;;;;7370938;19;20022;-67
2021/08/27 11:52:30;;;;;;;1.50;1.05;;;;;;;;;;7367925;19;20010;-66
2021/08/27 11:54:56;;;;;;;0.93;0.50;;;;;;;;;;7368869;19;20021;-66
2021/08/27 11:57:22;;;;;;;0.63;0.40;;;;;;;;;;7367773;19;20018;-66
2021/08/27 11:59:48;;;;;;;2.03;0.40;;;;;;;;;;7372212;19;20015;-67
2021/08/27 12:02:14;;;;;;;0.82;0.70;;;;;;;;;;7370259;19;20025;-66
2021/08/27 12:04:40;;;;;;;0.80;0.70;;;;;;;;;;7368966;19;20109;-67
2021/08/27 12:07:06;;;;;;;3.75;2.08;;;;;;;;;;7368561;19;20049;-66
2021/08/27 12:09:32;;;;;;;1.38;1.00;;;;;;;;;;7369473;19;20050;-66
2021/08/27 12:11:58;;;;;;;1.58;1.20;;;;;;;;;;7375488;19;20443;-66
2021/08/27 12:14:24;;;;;;;6.38;3.20;;;;;;;;;;7374571;19;20022;-66
2021/08/27 12:16:50;;;;;;;0.38;0.30;;;;;;;;;;7376191;19;20656;-66
2021/08/27 12:19:16;;;;;;;2.40;0.50;;;;;;;;;;7375965;19;20018;-66
2021/08/27 12:21:42;;;;;;;2.45;0.57;;;;;;;;;;7377454;19;20037;-66
2021/08/27 12:24:08;;;;;;;0.98;0.60;;;;;;;;;;7374217;19;20030;-66
2021/08/27 12:26:34;;;;;;;0.40;0.40;;;;;;;;;;7376350;19;20090;-66
2021/08/27 12:29:00;;;;;;;0.40;0.40;;;;;;;;;;7374907;19;20021;-66
2021/08/27 12:31:26;;;;;;;1.20;0.43;;;;;;;;;;7375377;19;20725;-66
2021/08/27 12:33:52;;;;;;;1.10;0.70;;;;;;;;;;7376349;19;20018;-66
2021/08/27 12:36:18;;;;;;;1.23;1.05;;;;;;;;;;7373357;19;20101;-66
2021/08/27 12:38:44;;;;;;;3.80;1.92;;;;;;;;;;7375457;19;20022;-66
2021/08/27 12:41:10;;;;;;;4.72;1.60;;;;;;;;;;7375899;19;20026;-66
2021/08/27 12:43:36;;;;;;;2.17;1.00;;;;;;;;;;7374715;19;20031;-66
2021/08/27 12:46:02;;;;;;;1.05;0.90;;;;;;;;;;7375322;19;20014;-65
2021/08/27 12:48:28;;;;;;;1.45;0.98;;;;;;;;;;7376157;19;20391;-65
2021/08/27 12:50:54;;;;;;;1.77;1.30;;;;;;;;;;7376730;19;20022;-65
2021/08/27 12:53:20;;;;;;;1.60;1.20;;;;;;;;;;7373395;19;20055;-65
2021/08/27 12:55:46;;;;;;;1.48;1.15;;;;;;;;;;7373512;19;20499;-66
2021/08/27 12:58:12;;;;;;;2.85;1.30;;;;;;;;;;7374189;19;20011;-66
2021/08/27 13:00:38;;;;;;;1.35;1.00;;;;;;;;;;7375070;19;20027;-66
2021/08/27 13:03:04;;;;;;;1.75;1.27;;;;;;;;;;7374673;19;20045;-66
2021/08/27 13:05:30;;;;;;;3.42;1.92;;;;;;;;;;7372069;19;20098;-66
2021/08/27 13:07:56;;;;;;;4.22;1.77;;;;;;;;;;7372344;19;20113;-66
2021/08/27 13:10:22;;;;;;;3.63;2.17;;;;;;;;;;7373632;19;20014;-66
2021/08/27 13:12:49;;;;;;;7.05;3.05;;;;;;;;;;7372759;19;20027;-66
2021/08/27 13:15:15;;;;;;;8.85;3.30;;;;;;;;;;7370215;19;20018;-66
2021/08/27 13:17:41;;;;;;;8.80;3.80;;;;;;;;;;7373701;19;20053;-66
2021/08/27 13:20:07;;;;;;;7.95;3.60;;;;;;;;;;7372090;19;20022;-66
2021/08/27 13:22:33;;;;;;;8.18;3.38;;;;;;;;;;7371737;19;20014;-66
2021/08/27 13:25:02;;;;;;;3.08;1.92;;;;;;;;;;7369710;19;20015;-66
2021/08/27 13:27:28;;;;;;;5.13;2.58;;;;;;;;;;7371598;19;20014;-66
2021/08/27 13:29:54;;;;;;;9.23;3.85;;;;;;;;;;7371917;19;20768;-66
2021/08/27 13:32:20;;;;;;;10.07;3.90;;;;;;;;;;7374066;19;20026;-66
2021/08/27 13:34:46;;;;;;;7.93;3.63;;;;;;;;;;7372708;19;20017;-65
2021/08/27 13:37:12;;;;;;;3.00;2.15;;;;;;;;;;7370374;19;20083;-65
2021/08/27 13:39:39;;;;;;;8.50;3.80;;;;;;;;;;7372565;19;20028;-66
2021/08/27 13:42:05;;;;;;;8.43;3.55;;;;;;;;;;7372897;19;20113;-66
2021/08/27 13:44:31;;;;;;;9.75;4.28;;;;;;;;;;7372119;19;20077;-67
2021/08/27 13:46:57;;;;;;;9.38;3.90;;;;;;;;;;7373071;19;20042;-66
2021/08/27 13:49:23;;;;;;;12.13;4.43;;;;;;;;;;7373492;19;20015;-68
2021/08/27 13:51:48;;;;;;;15.65;4.60;;;;;;;;;;7371575;19;20078;-65
2021/08/27 13:54:14;;;;;;;14.77;5.10;;;;;;;;;;7373432;19;20473;-65
2021/08/27 13:56:40;;;;;;;14.95;6.00;;;;;;;;;;7373073;19;20722;-66
2021/08/27 13:59:06;;;;;;;8.65;3.70;;;;;;;;;;7371782;19;20014;-66
2021/08/27 14:01:32;;;;;;;8.18;3.17;;;;;;;;;;7373203;19;20106;-66
2021/08/27 14:03:58;;;;;;;5.88;3.15;;;;;;;;;;7371514;19;20066;-66
2021/08/27 14:06:24;;;;;;;3.92;2.17;;;;;;;;;;7371795;19;20559;-66
2021/08/27 14:08:50;;;;;;;4.93;2.67;;;;;;;;;;7371112;19;20020;-66
2021/08/27 14:11:17;;;;;;;3.83;2.40;;;;;;;;;;7373312;19;20495;-66
2021/08/27 14:13:43;;;;;;;7.45;2.85;;;;;;;;;;7369528;19;20019;-66
2021/08/27 14:16:09;;;;;;;4.53;2.45;;;;;;;;;;7374319;19;20038;-66
2021/08/27 14:18:36;;;;;;;4.57;2.45;;;;;;;;;;7371297;19;20011;-66
2021/08/27 14:21:02;;;;;;;4.15;2.42;;;;;;;;;;7372028;19;20022;-66
2021/08/27 14:23:28;;;;;;;2.63;1.85;;;;;;;;;;7372343;19;20014;-66
2021/08/27 14:25:54;;;;;;;3.67;2.08;;;;;;;;;;7371393;19;20463;-66
2021/08/27 14:28:20;;;;;;;3.72;2.25;;;;;;;;;;7371164;19;20022;-66
2021/08/27 14:30:46;;;;;;;1.80;1.42;;;;;;;;;;7372160;19;20017;-66
2021/08/27 14:33:12;;;;;;;1.38;1.05;;;;;;;;;;7372124;19;20125;-66
2021/08/27 14:35:38;;;;;;;2.10;1.40;;;;;;;;;;7371335;19;20074;-66
2021/08/27 14:38:04;;;;;;;1.65;1.13;;;;;;;;;;7372399;19;20641;-66